createdAt,value
2018-02-24T00:00:06.970Z,-2.76
2018-02-24T00:01:06.685Z,-2.71
2018-02-24T00:02:06.896Z,-2.76
2018-02-24T00:03:06.866Z,-2.76
2018-02-24T00:04:06.580Z,-2.8
2018-02-24T00:05:06.799Z,-2.77
2018-02-24T00:06:06.752Z,-2.78
2018-02-24T00:07:06.719Z,-2.81
2018-02-24T00:08:06.687Z,-2.8
2018-02-24T00:09:06.652Z,-2.77
2018-02-24T00:10:06.615Z,-2.73
2018-02-24T00:11:06.576Z,-2.8
2018-02-24T00:12:06.368Z,-2.84
2018-02-24T00:13:06.507Z,-2.76
2018-02-24T00:14:06.473Z,-2.88
2018-02-24T00:15:06.186Z,-2.86
2018-02-24T00:16:06.153Z,-2.83
2018-02-24T00:17:06.366Z,-2.86
2018-02-24T00:18:06.329Z,-2.89
2018-02-24T00:19:06.041Z,-2.89
2018-02-24T00:20:06.258Z,-2.91
2018-02-24T00:21:06.220Z,-2.84
2018-02-24T00:22:06.181Z,-2.89
2018-02-24T00:23:06.155Z,-2.91
2018-02-24T00:24:06.112Z,-2.81
2018-02-24T00:25:05.580Z,-2.89
2018-02-24T00:26:06.041Z,-2.88
2018-02-24T00:27:06.006Z,-2.92
2018-02-24T00:28:05.974Z,-2.86
2018-02-24T00:29:05.934Z,-2.91
2018-02-24T00:30:05.697Z,-2.86
2018-02-24T00:31:05.616Z,-2.91
2018-02-24T00:32:05.581Z,-2.91
2018-02-24T00:33:05.795Z,-2.89
2018-02-24T00:34:05.514Z,-2.88
2018-02-24T00:35:05.474Z,-2.86
2018-02-24T00:36:05.690Z,-3.01
2018-02-24T00:37:05.403Z,-2.86
2018-02-24T00:38:05.610Z,-2.92
2018-02-24T00:39:05.331Z,-2.88
2018-02-24T00:40:05.050Z,-2.88
2018-02-24T00:41:05.257Z,-2.91
2018-02-24T00:42:04.974Z,-2.84
2018-02-24T00:43:05.438Z,-2.92
2018-02-24T00:44:05.401Z,-2.98
2018-02-24T00:45:05.118Z,-3.01
2018-02-24T00:46:05.077Z,-2.99
2018-02-24T00:47:04.794Z,-2.95
2018-02-24T00:48:05.010Z,-3.06
2018-02-24T00:49:05.224Z,-3.02
2018-02-24T00:50:04.946Z,-2.94
2018-02-24T00:51:04.902Z,-3.04
2018-02-24T00:52:05.116Z,-3.07
2018-02-24T00:53:05.211Z,-2.99
2018-02-24T00:54:04.791Z,-2.92
2018-02-24T00:55:05.006Z,-2.92
2018-02-24T00:56:04.969Z,-3.04
2018-02-24T00:57:04.688Z,-3.07
2018-02-24T00:58:04.898Z,-3.02
2018-02-24T00:59:04.859Z,-3.09
2018-02-24T01:00:04.830Z,-3.13
2018-02-24T01:01:04.543Z,-3.15
2018-02-24T01:02:04.755Z,-3.02
2018-02-24T01:03:04.718Z,-3.02
2018-02-24T01:04:04.686Z,-3.13
2018-02-24T01:05:04.652Z,-3.04
2018-02-24T01:06:04.611Z,-3.1
2018-02-24T01:07:04.577Z,-3.12
2018-02-24T01:08:04.538Z,-3.04
2018-02-24T01:09:04.507Z,-3.13
2018-02-24T01:10:04.466Z,-3.09
2018-02-24T01:11:04.434Z,-3.1
2018-02-24T01:12:04.403Z,-3.15
2018-02-24T01:13:04.363Z,-3.1
2018-02-24T01:14:04.320Z,-3.09
2018-02-24T01:15:04.287Z,-3.15
2018-02-24T01:16:04.003Z,-3.1
2018-02-24T01:17:04.219Z,-3.1
2018-02-24T01:18:04.184Z,-3.13
2018-02-24T01:19:04.150Z,-3.1
2018-02-24T01:20:04.111Z,-3.13
2018-02-24T01:21:03.828Z,-3.16
2018-02-24T01:22:04.040Z,-3.15
2018-02-24T01:23:04.005Z,-3.17
2018-02-24T01:24:03.974Z,-3.16
2018-02-24T01:25:03.928Z,-3.16
2018-02-24T01:26:03.894Z,-3.19
2018-02-24T01:27:03.857Z,-3.17
2018-02-24T01:28:03.821Z,-3.17
2018-02-24T01:29:03.791Z,-3.12
2018-02-24T01:30:03.752Z,-3.16
2018-02-24T01:31:03.714Z,-3.15
2018-02-24T01:32:03.687Z,-3.15
2018-02-24T01:33:03.644Z,-3.15
2018-02-24T01:34:03.607Z,-3.23
2018-02-24T01:35:03.322Z,-3.19
2018-02-24T01:36:03.537Z,-3.13
2018-02-24T01:37:03.504Z,-3.17
2018-02-24T01:38:03.213Z,-3.17
2018-02-24T01:39:03.182Z,-3.25
2018-02-24T01:40:03.144Z,-3.23
2018-02-24T01:41:03.112Z,-3.16
2018-02-24T01:42:03.423Z,-3.25
2018-02-24T01:43:03.282Z,-3.2
2018-02-24T01:44:03.000Z,-3.16
2018-02-24T01:45:02.964Z,-3.16
2018-02-24T01:46:03.179Z,-3.15
2018-02-24T01:47:03.146Z,-3.2
2018-02-24T01:48:02.861Z,-3.23
2018-02-24T01:49:02.820Z,-3.15
2018-02-24T01:50:03.033Z,-3.16
2018-02-24T01:51:02.749Z,-3.28
2018-02-24T01:52:02.959Z,-3.27
2018-02-24T01:53:03.455Z,-3.25
2018-02-24T01:54:03.540Z,-3.19
2018-02-24T01:55:02.851Z,-3.31
2018-02-24T01:56:02.820Z,-3.3
2018-02-24T01:57:02.782Z,-3.28
2018-02-24T01:58:02.747Z,-3.28
2018-02-24T01:59:02.707Z,-3.31
2018-02-24T02:00:02.674Z,-3.4
2018-02-24T02:01:02.640Z,-3.3
2018-02-24T02:02:02.599Z,-3.35
2018-02-24T02:03:02.568Z,-3.33
2018-02-24T02:04:02.529Z,-3.37
2018-02-24T02:05:02.494Z,-3.33
2018-02-24T02:06:02.208Z,-3.35
2018-02-24T02:07:02.173Z,-3.35
2018-02-24T02:08:02.384Z,-3.35
2018-02-24T02:09:02.346Z,-3.34
2018-02-24T02:10:02.310Z,-3.27
2018-02-24T02:11:02.512Z,-3.37
2018-02-24T02:12:02.242Z,-3.33
2018-02-24T02:13:01.961Z,-3.31
2018-02-24T02:14:02.163Z,-3.31
2018-02-24T02:15:02.156Z,-3.31
2018-02-24T02:16:02.097Z,-3.3
2018-02-24T02:17:02.063Z,-3.23
2018-02-24T02:18:02.026Z,-3.38
2018-02-24T02:19:01.990Z,-3.33
2018-02-24T02:20:01.960Z,-3.25
2018-02-24T02:21:01.919Z,-3.34
2018-02-24T02:22:01.880Z,-3.27
2018-02-24T02:23:01.842Z,-3.37
2018-02-24T02:24:01.811Z,-3.35
2018-02-24T02:25:01.771Z,-3.4
2018-02-24T02:26:01.488Z,-3.34
2018-02-24T02:27:01.700Z,-3.35
2018-02-24T02:28:01.416Z,-3.38
2018-02-24T02:29:01.630Z,-3.38
2018-02-24T02:30:01.340Z,-3.4
2018-02-24T02:31:01.311Z,-3.37
2018-02-24T02:32:01.528Z,-3.35
2018-02-24T02:33:01.485Z,-3.4
2018-02-24T02:34:01.485Z,-3.41
2018-02-24T02:35:01.435Z,-3.41
2018-02-24T02:36:01.381Z,-3.38
2018-02-24T02:37:01.097Z,-3.44
2018-02-24T02:38:01.305Z,-3.37
2018-02-24T02:39:01.271Z,-3.37
2018-02-24T02:40:01.235Z,-3.35
2018-02-24T02:41:00.961Z,-3.41
2018-02-24T02:42:00.915Z,-3.37
2018-02-24T02:43:01.129Z,-3.52
2018-02-24T02:44:01.100Z,-3.44
2018-02-24T02:45:01.056Z,-3.48
2018-02-24T02:46:01.020Z,-3.44
2018-02-24T02:47:00.993Z,-3.41
2018-02-24T02:48:00.948Z,-3.49
2018-02-24T02:49:00.904Z,-3.44
2018-02-24T02:50:00.874Z,-3.41
2018-02-24T02:51:00.836Z,-3.41
2018-02-24T02:52:00.801Z,-3.45
2018-02-24T02:53:00.820Z,-3.49
2018-02-24T02:54:00.477Z,-3.51
2018-02-24T02:55:00.691Z,-3.49
2018-02-24T02:56:00.406Z,-3.44
2018-02-24T02:57:00.623Z,-3.45
2018-02-24T02:58:00.590Z,-3.52
2018-02-24T02:59:00.306Z,-3.48
2018-02-24T03:00:00.524Z,-3.58
2018-02-24T03:01:00.479Z,-3.55
2018-02-24T03:02:00.462Z,-3.52
2018-02-24T03:03:00.407Z,-3.48
2018-02-24T03:04:00.365Z,-3.56
2018-02-24T03:05:00.334Z,-3.46
2018-02-24T03:06:00.303Z,-3.54
2018-02-24T03:07:00.257Z,-3.49
2018-02-24T03:07:59.730Z,-3.55
2018-02-24T03:08:59.942Z,-3.54
2018-02-24T03:10:00.154Z,-3.54
2018-02-24T03:11:00.115Z,-3.63
2018-02-24T03:12:00.079Z,-3.54
2018-02-24T03:13:00.041Z,-3.55
2018-02-24T03:14:00.004Z,-3.59
2018-02-24T03:14:59.969Z,-3.64
2018-02-24T03:15:59.930Z,-3.61
2018-02-24T03:16:59.961Z,-3.55
2018-02-24T03:17:59.862Z,-3.56
2018-02-24T03:18:59.821Z,-3.55
2018-02-24T03:19:59.790Z,-3.55
2018-02-24T03:20:59.503Z,-3.56
2018-02-24T03:21:59.716Z,-3.63
2018-02-24T03:22:59.678Z,-3.59
2018-02-24T03:23:59.643Z,-3.56
2018-02-24T03:24:59.607Z,-3.61
2018-02-24T03:25:59.571Z,-3.61
2018-02-24T03:26:59.531Z,-3.54
2018-02-24T03:27:59.253Z,-3.61
2018-02-24T03:28:59.461Z,-3.64
2018-02-24T03:29:59.432Z,-3.63
2018-02-24T03:30:59.143Z,-3.66
2018-02-24T03:31:59.353Z,-3.64
2018-02-24T03:32:59.320Z,-3.56
2018-02-24T03:33:59.282Z,-3.59
2018-02-24T03:34:59.001Z,-3.59
2018-02-24T03:35:59.211Z,-3.59
2018-02-24T03:36:59.172Z,-3.59
2018-02-24T03:37:59.136Z,-3.64
2018-02-24T03:38:59.100Z,-3.66
2018-02-24T03:39:59.066Z,-3.63
2018-02-24T03:40:59.028Z,-3.56
2018-02-24T03:41:58.995Z,-3.59
2018-02-24T03:42:58.955Z,-3.55
2018-02-24T03:43:58.922Z,-3.66
2018-02-24T03:44:58.632Z,-3.61
2018-02-24T03:45:58.349Z,-3.64
2018-02-24T03:46:58.807Z,-3.63
2018-02-24T03:47:58.771Z,-3.69
2018-02-24T03:48:58.736Z,-3.61
2018-02-24T03:49:58.699Z,-3.64
2018-02-24T03:50:58.662Z,-3.59
2018-02-24T03:51:58.631Z,-3.61
2018-02-24T03:52:58.598Z,-3.7
2018-02-24T03:53:58.561Z,-3.67
2018-02-24T03:54:58.517Z,-3.59
2018-02-24T03:55:58.482Z,-3.63
2018-02-24T03:56:58.448Z,-3.61
2018-02-24T03:57:58.414Z,-3.61
2018-02-24T03:58:58.379Z,-3.66
2018-02-24T03:59:58.342Z,-3.63
2018-02-24T04:00:58.303Z,-3.69
2018-02-24T04:01:58.275Z,-3.56
2018-02-24T04:02:58.228Z,-3.61
2018-02-24T04:03:57.945Z,-3.67
2018-02-24T04:04:58.155Z,-3.61
2018-02-24T04:05:57.870Z,-3.58
2018-02-24T04:06:58.085Z,-3.61
2018-02-24T04:07:58.047Z,-3.63
2018-02-24T04:08:58.014Z,-3.59
2018-02-24T04:09:57.981Z,-3.66
2018-02-24T04:10:57.942Z,-3.63
2018-02-24T04:11:57.903Z,-3.66
2018-02-24T04:12:57.866Z,-3.72
2018-02-24T04:13:57.877Z,-3.67
2018-02-24T04:14:57.799Z,-3.61
2018-02-24T04:15:57.513Z,-3.64
2018-02-24T04:16:57.724Z,-3.56
2018-02-24T04:17:57.693Z,-3.64
2018-02-24T04:18:57.656Z,-3.66
2018-02-24T04:19:57.612Z,-3.63
2018-02-24T04:20:57.330Z,-3.66
2018-02-24T04:21:57.547Z,-3.64
2018-02-24T04:22:57.509Z,-3.66
2018-02-24T04:23:57.471Z,-3.66
2018-02-24T04:24:57.430Z,-3.63
2018-02-24T04:25:57.149Z,-3.67
2018-02-24T04:26:57.365Z,-3.7
2018-02-24T04:27:57.323Z,-3.69
2018-02-24T04:28:57.285Z,-3.64
2018-02-24T04:29:57.302Z,-3.64
2018-02-24T04:30:57.215Z,-3.75
2018-02-24T04:31:57.178Z,-3.63
2018-02-24T04:32:57.147Z,-3.67
2018-02-24T04:33:56.871Z,-3.63
2018-02-24T04:34:57.065Z,-3.63
2018-02-24T04:35:57.032Z,-3.74
2018-02-24T04:36:56.994Z,-3.67
2018-02-24T04:37:56.959Z,-3.75
2018-02-24T04:38:56.924Z,-3.63
2018-02-24T04:39:56.886Z,-3.64
2018-02-24T04:40:56.853Z,-3.78
2018-02-24T04:41:56.817Z,-3.8
2018-02-24T04:42:56.774Z,-3.7
2018-02-24T04:43:56.492Z,-3.74
2018-02-24T04:44:56.704Z,-3.78
2018-02-24T04:45:56.681Z,-3.78
2018-02-24T04:46:56.634Z,-3.8
2018-02-24T04:47:56.599Z,-3.72
2018-02-24T04:48:56.563Z,-3.74
2018-02-24T04:49:56.525Z,-3.72
2018-02-24T04:50:56.488Z,-3.74
2018-02-24T04:51:56.455Z,-3.78
2018-02-24T04:52:56.413Z,-3.74
2018-02-24T04:53:56.385Z,-3.77
2018-02-24T04:54:56.344Z,-3.7
2018-02-24T04:55:56.309Z,-3.77
2018-02-24T04:56:56.276Z,-3.8
2018-02-24T04:57:56.234Z,-3.77
2018-02-24T04:58:56.200Z,-3.74
2018-02-24T04:59:55.912Z,-3.78
2018-02-24T05:00:55.873Z,-3.74
2018-02-24T05:01:55.845Z,-3.8
2018-02-24T05:02:56.049Z,-3.75
2018-02-24T05:03:56.017Z,-3.77
2018-02-24T05:04:55.977Z,-3.74
2018-02-24T05:05:55.943Z,-3.74
2018-02-24T05:06:55.665Z,-3.74
2018-02-24T05:07:55.871Z,-3.8
2018-02-24T05:08:55.831Z,-3.7
2018-02-24T05:09:55.840Z,-3.72
2018-02-24T05:10:55.760Z,-3.82
2018-02-24T05:11:55.722Z,-3.78
2018-02-24T05:12:55.691Z,-3.8
2018-02-24T05:13:55.649Z,-3.78
2018-02-24T05:14:55.620Z,-3.77
2018-02-24T05:15:55.582Z,-3.82
2018-02-24T05:16:55.544Z,-3.82
2018-02-24T05:17:55.505Z,-3.85
2018-02-24T05:18:55.466Z,-3.85
2018-02-24T05:19:55.491Z,-3.83
2018-02-24T05:20:55.394Z,-3.85
2018-02-24T05:21:55.361Z,-3.89
2018-02-24T05:22:55.075Z,-3.83
2018-02-24T05:23:55.041Z,-3.83
2018-02-24T05:24:55.388Z,-3.83
2018-02-24T05:25:55.210Z,-3.88
2018-02-24T05:26:55.182Z,-3.86
2018-02-24T05:27:55.143Z,-3.78
2018-02-24T05:28:55.110Z,-3.89
2018-02-24T05:29:54.819Z,-3.77
2018-02-24T05:30:55.032Z,-3.82
2018-02-24T05:31:54.999Z,-3.86
2018-02-24T05:32:54.963Z,-3.82
2018-02-24T05:33:54.923Z,-3.88
2018-02-24T05:34:54.890Z,-3.85
2018-02-24T05:35:54.848Z,-3.85
2018-02-24T05:36:54.815Z,-3.85
2018-02-24T05:37:54.784Z,-3.83
2018-02-24T05:38:54.780Z,-3.85
2018-02-24T05:39:54.802Z,-3.85
2018-02-24T05:40:54.667Z,-3.86
2018-02-24T05:41:54.630Z,-3.91
2018-02-24T05:42:54.596Z,-3.86
2018-02-24T05:43:54.559Z,-3.85
2018-02-24T05:44:54.520Z,-3.89
2018-02-24T05:45:54.489Z,-3.86
2018-02-24T05:46:54.447Z,-3.91
2018-02-24T05:47:54.412Z,-3.83
2018-02-24T05:48:54.383Z,-3.86
2018-02-24T05:49:54.337Z,-3.89
2018-02-24T05:50:54.306Z,-3.95
2018-02-24T05:51:54.265Z,-3.95
2018-02-24T05:52:54.238Z,-3.93
2018-02-24T05:53:54.193Z,-3.95
2018-02-24T05:54:54.158Z,-3.96
2018-02-24T05:55:54.121Z,-3.91
2018-02-24T05:56:54.194Z,-3.88
2018-02-24T05:57:53.804Z,-3.98
2018-02-24T05:58:54.012Z,-3.96
2018-02-24T05:59:53.981Z,-3.93
2018-02-24T06:00:53.934Z,-3.93
2018-02-24T06:01:53.909Z,-3.88
2018-02-24T06:02:53.865Z,-3.88
2018-02-24T06:03:53.828Z,-3.92
2018-02-24T06:04:53.791Z,-3.88
2018-02-24T06:05:53.857Z,-3.88
2018-02-24T06:06:53.723Z,-3.85
2018-02-24T06:07:53.684Z,-3.92
2018-02-24T06:08:53.395Z,-3.95
2018-02-24T06:09:53.612Z,-3.93
2018-02-24T06:10:53.327Z,-3.92
2018-02-24T06:11:53.542Z,-3.98
2018-02-24T06:12:53.502Z,-3.92
2018-02-24T06:13:53.468Z,-3.92
2018-02-24T06:14:53.432Z,-3.88
2018-02-24T06:15:53.516Z,-3.89
2018-02-24T06:16:52.857Z,-3.91
2018-02-24T06:17:53.323Z,-3.91
2018-02-24T06:18:53.284Z,-3.91
2018-02-24T06:19:53.248Z,-3.92
2018-02-24T06:20:53.211Z,-3.91
2018-02-24T06:21:53.171Z,-3.98
2018-02-24T06:22:53.144Z,-3.92
2018-02-24T06:23:53.100Z,-3.92
2018-02-24T06:24:53.061Z,-3.95
2018-02-24T06:25:53.026Z,-3.98
2018-02-24T06:26:52.992Z,-3.99
2018-02-24T06:27:52.957Z,-3.98
2018-02-24T06:28:52.669Z,-3.99
2018-02-24T06:29:52.881Z,-3.89
2018-02-24T06:30:52.844Z,-3.98
2018-02-24T06:31:52.810Z,-3.91
2018-02-24T06:32:52.772Z,-3.89
2018-02-24T06:33:52.737Z,-3.92
2018-02-24T06:34:52.702Z,-3.92
2018-02-24T06:35:52.668Z,-3.83
2018-02-24T06:36:52.626Z,-3.88
2018-02-24T06:37:52.355Z,-3.88
2018-02-24T06:38:52.553Z,-3.86
2018-02-24T06:39:52.522Z,-3.82
2018-02-24T06:40:52.482Z,-3.85
2018-02-24T06:41:52.448Z,-3.85
2018-02-24T06:42:52.411Z,-3.85
2018-02-24T06:43:52.376Z,-3.88
2018-02-24T06:44:52.339Z,-3.85
2018-02-24T06:45:52.052Z,-3.83
2018-02-24T06:46:52.017Z,-3.86
2018-02-24T06:47:52.232Z,-3.86
2018-02-24T06:48:52.261Z,-3.85
2018-02-24T06:49:52.151Z,-3.82
2018-02-24T06:50:52.117Z,-3.85
2018-02-24T06:51:51.832Z,-3.88
2018-02-24T06:52:52.045Z,-3.77
2018-02-24T06:53:52.014Z,-3.75
2018-02-24T06:54:51.973Z,-3.78
2018-02-24T06:55:51.936Z,-3.77
2018-02-24T06:56:51.906Z,-3.75
2018-02-24T06:57:51.611Z,-3.74
2018-02-24T06:58:51.826Z,-3.74
2018-02-24T06:59:51.788Z,-3.75
2018-02-24T07:00:51.864Z,-3.78
2018-02-24T07:01:51.473Z,-3.83
2018-02-24T07:02:51.678Z,-3.75
2018-02-24T07:03:51.647Z,-3.78
2018-02-24T07:04:51.609Z,-3.67
2018-02-24T07:05:51.573Z,-3.64
2018-02-24T07:06:51.286Z,-3.59
2018-02-24T07:07:51.500Z,-3.67
2018-02-24T07:08:51.470Z,-3.58
2018-02-24T07:09:51.179Z,-3.61
2018-02-24T07:10:51.392Z,-3.63
2018-02-24T07:11:51.109Z,-3.66
2018-02-24T07:12:51.318Z,-3.61
2018-02-24T07:13:51.284Z,-3.59
2018-02-24T07:14:51.246Z,-3.59
2018-02-24T07:15:51.212Z,-3.63
2018-02-24T07:16:50.928Z,-3.59
2018-02-24T07:17:51.142Z,-3.58
2018-02-24T07:18:51.105Z,-3.61
2018-02-24T07:19:51.066Z,-3.59
2018-02-24T07:20:51.078Z,-3.59
2018-02-24T07:21:50.997Z,-3.59
2018-02-24T07:22:50.962Z,-3.58
2018-02-24T07:23:50.925Z,-3.55
2018-02-24T07:24:50.884Z,-3.52
2018-02-24T07:25:50.853Z,-3.52
2018-02-24T07:26:50.814Z,-3.51
2018-02-24T07:27:50.534Z,-3.44
2018-02-24T07:28:50.745Z,-3.45
2018-02-24T07:29:50.707Z,-3.44
2018-02-24T07:30:50.674Z,-3.4
2018-02-24T07:31:50.633Z,-3.44
2018-02-24T07:32:50.601Z,-3.35
2018-02-24T07:33:50.563Z,-3.34
2018-02-24T07:34:50.282Z,-3.4
2018-02-24T07:35:50.492Z,-3.37
2018-02-24T07:36:50.453Z,-3.27
2018-02-24T07:37:50.421Z,-3.28
2018-02-24T07:38:50.440Z,-3.27
2018-02-24T07:39:50.351Z,-3.31
2018-02-24T07:40:50.311Z,-3.23
2018-02-24T07:41:50.276Z,-3.27
2018-02-24T07:42:49.992Z,-3.19
2018-02-24T07:43:50.203Z,-3.17
2018-02-24T07:44:49.920Z,-3.15
2018-02-24T07:45:50.131Z,-3.19
2018-02-24T07:46:50.153Z,-3.1
2018-02-24T07:47:50.072Z,-3.12
2018-02-24T07:48:50.035Z,-3.06
2018-02-24T07:49:49.994Z,-3.02
2018-02-24T07:50:49.957Z,-3.02
2018-02-24T07:51:49.924Z,-3.04
2018-02-24T07:52:49.899Z,-3.02
2018-02-24T07:53:49.851Z,-2.94
2018-02-24T07:54:49.823Z,-2.95
2018-02-24T07:55:49.779Z,-2.99
2018-02-24T07:56:49.747Z,-2.98
2018-02-24T07:57:49.462Z,-2.88
2018-02-24T07:58:49.676Z,-2.89
2018-02-24T07:59:49.142Z,-2.89
2018-02-24T08:00:49.356Z,-2.88
2018-02-24T08:01:49.322Z,-2.86
2018-02-24T08:02:49.536Z,-2.84
2018-02-24T08:03:49.496Z,-2.78
2018-02-24T08:04:49.536Z,-2.8
2018-02-24T08:05:49.422Z,-2.78
2018-02-24T08:06:49.392Z,-2.76
2018-02-24T08:07:49.357Z,-2.7
2018-02-24T08:08:49.071Z,-2.73
2018-02-24T08:09:49.289Z,-2.63
2018-02-24T08:10:49.255Z,-2.71
2018-02-24T08:11:49.217Z,-2.65
2018-02-24T08:12:49.180Z,-2.58
2018-02-24T08:13:48.896Z,-2.58
2018-02-24T08:14:49.114Z,-2.74
2018-02-24T08:15:48.828Z,-2.59
2018-02-24T08:16:48.788Z,-2.7
2018-02-24T08:17:49.010Z,-2.53
2018-02-24T08:18:48.974Z,-2.52
2018-02-24T08:19:48.941Z,-2.52
2018-02-24T08:20:48.653Z,-2.47
2018-02-24T08:21:49.213Z,-2.52
2018-02-24T08:22:48.834Z,-2.42
2018-02-24T08:23:48.545Z,-2.4
2018-02-24T08:24:48.757Z,-2.41
2018-02-24T08:25:48.720Z,-2.38
2018-02-24T08:26:48.755Z,-2.41
2018-02-24T08:27:48.661Z,-2.35
2018-02-24T08:28:48.617Z,-2.35
2018-02-24T08:29:48.592Z,-2.4
2018-02-24T08:30:48.553Z,-2.32
2018-02-24T08:31:48.513Z,-2.28
2018-02-24T08:32:48.539Z,-2.32
2018-02-24T08:33:48.443Z,-2.22
2018-02-24T08:34:48.411Z,-2.18
2018-02-24T08:35:48.379Z,-2.13
2018-02-24T08:36:48.347Z,-2.12
2018-02-24T08:37:48.311Z,-2.1
2018-02-24T08:38:48.289Z,-2.08
2018-02-24T08:39:48.240Z,-2.07
2018-02-24T08:40:48.206Z,-1.98
2018-02-24T08:41:48.173Z,-2.07
2018-02-24T08:42:47.897Z,-1.92
2018-02-24T08:43:48.106Z,-2.01
2018-02-24T08:44:47.822Z,-1.9
2018-02-24T08:45:48.059Z,-1.83
2018-02-24T08:46:47.995Z,-1.86
2018-02-24T08:47:47.970Z,-1.89
2018-02-24T08:48:47.929Z,-1.86
2018-02-24T08:49:47.891Z,-1.82
2018-02-24T08:50:47.610Z,-1.77
2018-02-24T08:51:47.828Z,-1.74
2018-02-24T08:52:47.904Z,-1.8
2018-02-24T08:53:47.750Z,-1.76
2018-02-24T08:54:47.722Z,-1.77
2018-02-24T08:55:47.437Z,-1.8
2018-02-24T08:56:47.406Z,-1.69
2018-02-24T08:57:47.601Z,-1.71
2018-02-24T08:58:47.784Z,-1.66
2018-02-24T08:59:47.545Z,-1.5
2018-02-24T09:00:47.529Z,-1.54
2018-02-24T09:01:47.480Z,-1.64
2018-02-24T09:02:47.451Z,-1.5
2018-02-24T09:03:47.411Z,-1.54
2018-02-24T09:04:47.376Z,-1.58
2018-02-24T09:05:47.344Z,-1.54
2018-02-24T09:06:47.116Z,-1.59
2018-02-24T09:07:47.272Z,-1.48
2018-02-24T09:08:47.240Z,-1.47
2018-02-24T09:09:47.209Z,-1.51
2018-02-24T09:10:47.173Z,-1.51
2018-02-24T09:11:46.888Z,-1.44
2018-02-24T09:12:47.104Z,-1.33
2018-02-24T09:13:47.077Z,-1.43
2018-02-24T09:14:47.046Z,-1.3
2018-02-24T09:15:47.230Z,-1.32
2018-02-24T09:16:46.976Z,-1.29
2018-02-24T09:17:47.276Z,-1.26
2018-02-24T09:18:46.912Z,-1.26
2018-02-24T09:19:46.964Z,-1.26
2018-02-24T09:20:46.830Z,-1.22
2018-02-24T09:21:46.549Z,-1.25
2018-02-24T09:22:46.514Z,-1.2
2018-02-24T09:23:46.730Z,-1.2
2018-02-24T09:24:46.696Z,-1.2
2018-02-24T09:25:46.662Z,-1.2
2018-02-24T09:26:46.628Z,-1.14
2018-02-24T09:27:46.602Z,-1.23
2018-02-24T09:28:46.561Z,-1.15
2018-02-24T09:29:46.528Z,-1.09
2018-02-24T09:30:46.028Z,-1.14
2018-02-24T09:31:46.216Z,-1.11
2018-02-24T09:32:46.422Z,-1.02
2018-02-24T09:33:46.395Z,-0.96
2018-02-24T09:34:46.365Z,-0.94
2018-02-24T09:35:46.327Z,-0.93
2018-02-24T09:36:46.287Z,-0.93
2018-02-24T09:37:46.005Z,-0.9
2018-02-24T09:38:46.022Z,-0.82
2018-02-24T09:39:46.188Z,-0.8
2018-02-24T09:40:46.154Z,-0.78
2018-02-24T09:41:45.873Z,-0.72
2018-02-24T09:42:46.090Z,-0.74
2018-02-24T09:43:46.055Z,-0.74
2018-02-24T09:44:46.025Z,-0.74
2018-02-24T09:45:45.987Z,-0.7
2018-02-24T09:46:45.458Z,-0.67
2018-02-24T09:47:45.926Z,-0.61
2018-02-24T09:48:45.884Z,-0.59
2018-02-24T09:49:45.852Z,-0.59
2018-02-24T09:50:45.825Z,-0.49
2018-02-24T09:51:45.795Z,-0.47
2018-02-24T09:52:45.508Z,-0.49
2018-02-24T09:53:45.726Z,-0.39
2018-02-24T09:54:45.436Z,-0.34
2018-02-24T09:55:45.415Z,-0.31
2018-02-24T09:56:45.374Z,-0.39
2018-02-24T09:57:45.336Z,-0.31
2018-02-24T09:58:45.390Z,-0.31
2018-02-24T09:59:45.266Z,-0.18
2018-02-24T10:00:45.239Z,-0.25
2018-02-24T10:01:45.206Z,-0.14
2018-02-24T10:02:45.177Z,-0.07
2018-02-24T10:03:45.136Z,-0.03
2018-02-24T10:04:45.351Z,0.05
2018-02-24T10:05:45.317Z,0.11
2018-02-24T10:06:45.038Z,0.11
2018-02-24T10:07:45.006Z,0.07
2018-02-24T10:08:45.034Z,0.21
2018-02-24T10:09:45.207Z,0.22
2018-02-24T10:10:45.011Z,0.29
2018-02-24T10:11:44.876Z,0.32
2018-02-24T10:12:45.096Z,0.46
2018-02-24T10:13:45.056Z,0.41
2018-02-24T10:14:44.778Z,0.43
2018-02-24T10:15:44.744Z,0.4
2018-02-24T10:16:44.960Z,0.5
2018-02-24T10:17:44.922Z,0.46
2018-02-24T10:18:44.897Z,0.47
2018-02-24T10:19:44.618Z,0.52
2018-02-24T10:20:44.930Z,0.55
2018-02-24T10:21:44.544Z,0.65
2018-02-24T10:22:44.763Z,0.65
2018-02-24T10:23:44.740Z,0.7
2018-02-24T10:24:44.696Z,0.66
2018-02-24T10:25:44.416Z,0.65
2018-02-24T10:26:44.633Z,0.69
2018-02-24T10:27:44.603Z,0.69
2018-02-24T10:28:44.564Z,0.68
2018-02-24T10:29:44.295Z,0.62
2018-02-24T10:30:44.501Z,0.63
2018-02-24T10:31:44.470Z,0.73
2018-02-24T10:32:44.441Z,0.73
2018-02-24T10:33:44.410Z,0.7
2018-02-24T10:34:44.381Z,0.81
2018-02-24T10:35:44.337Z,0.77
2018-02-24T10:36:44.310Z,0.78
2018-02-24T10:37:44.275Z,0.73
2018-02-24T10:38:43.998Z,0.77
2018-02-24T10:39:44.211Z,0.78
2018-02-24T10:40:44.181Z,0.76
2018-02-24T10:41:44.146Z,0.81
2018-02-24T10:42:43.865Z,0.84
2018-02-24T10:43:44.083Z,0.84
2018-02-24T10:44:44.053Z,0.91
2018-02-24T10:45:44.021Z,0.88
2018-02-24T10:46:43.994Z,0.88
2018-02-24T10:47:43.955Z,0.98
2018-02-24T10:48:43.921Z,0.94
2018-02-24T10:49:43.888Z,0.92
2018-02-24T10:50:43.611Z,1.01
2018-02-24T10:51:43.579Z,1.06
2018-02-24T10:52:43.789Z,1.1
2018-02-24T10:53:43.775Z,1.1
2018-02-24T10:54:43.727Z,1.02
2018-02-24T10:55:43.698Z,1.17
2018-02-24T10:56:43.673Z,1.17
2018-02-24T10:57:43.631Z,1.23
2018-02-24T10:58:43.600Z,1.17
2018-02-24T10:59:43.575Z,1.19
2018-02-24T11:00:43.534Z,1.23
2018-02-24T11:01:43.511Z,1.3
2018-02-24T11:02:43.476Z,1.3
2018-02-24T11:03:43.444Z,1.35
2018-02-24T11:04:43.410Z,1.4
2018-02-24T11:05:43.375Z,1.35
2018-02-24T11:06:42.849Z,1.44
2018-02-24T11:07:43.310Z,1.55
2018-02-24T11:08:43.285Z,1.48
2018-02-24T11:09:43.002Z,1.55
2018-02-24T11:10:43.217Z,1.53
2018-02-24T11:11:43.184Z,1.48
2018-02-24T11:12:42.908Z,1.45
2018-02-24T11:13:43.128Z,1.53
2018-02-24T11:14:42.842Z,1.48
2018-02-24T11:15:43.061Z,1.62
2018-02-24T11:16:43.026Z,1.56
2018-02-24T11:17:43.011Z,1.58
2018-02-24T11:18:42.971Z,1.62
2018-02-24T11:19:42.958Z,1.78
2018-02-24T11:20:42.682Z,1.76
2018-02-24T11:21:42.732Z,1.81
2018-02-24T11:22:42.350Z,1.8
2018-02-24T11:23:42.820Z,1.78
2018-02-24T11:24:42.534Z,1.8
2018-02-24T11:25:42.758Z,1.8
2018-02-24T11:26:42.507Z,1.84
2018-02-24T11:27:42.754Z,1.71
2018-02-24T11:28:42.413Z,1.73
2018-02-24T11:29:42.674Z,1.8
2018-02-24T11:30:42.638Z,1.81
2018-02-24T11:31:42.561Z,1.85
2018-02-24T11:32:42.530Z,1.74
2018-02-24T11:33:42.491Z,1.71
2018-02-24T11:34:42.466Z,1.67
2018-02-24T11:35:42.197Z,1.63
2018-02-24T11:36:42.408Z,1.67
2018-02-24T11:37:42.118Z,1.73
2018-02-24T11:38:42.335Z,1.71
2018-02-24T11:39:42.314Z,1.63
2018-02-24T11:40:42.275Z,1.76
2018-02-24T11:41:42.267Z,1.76
2018-02-24T11:42:42.232Z,1.68
2018-02-24T11:43:41.969Z,1.71
2018-02-24T11:44:42.179Z,1.78
2018-02-24T11:45:42.174Z,1.84
2018-02-24T11:46:41.854Z,1.84
2018-02-24T11:47:42.067Z,1.94
2018-02-24T11:48:42.018Z,1.92
2018-02-24T11:49:41.744Z,1.95
2018-02-24T11:50:41.961Z,2.02
2018-02-24T11:51:41.927Z,2.04
2018-02-24T11:52:41.895Z,2
2018-02-24T11:53:41.864Z,2.02
2018-02-24T11:54:41.842Z,2.06
2018-02-24T11:55:41.562Z,2
2018-02-24T11:56:41.772Z,2.11
2018-02-24T11:57:41.737Z,2.13
2018-02-24T11:58:41.710Z,2.11
2018-02-24T11:59:41.677Z,2.04
2018-02-24T12:00:41.392Z,2.08
2018-02-24T12:01:41.612Z,2.02
2018-02-24T12:02:41.336Z,1.97
2018-02-24T12:03:41.556Z,2.04
2018-02-24T12:04:41.270Z,1.89
2018-02-24T12:05:41.486Z,1.87
2018-02-24T12:06:41.503Z,1.95
2018-02-24T12:07:41.212Z,1.84
2018-02-24T12:08:41.393Z,1.8
2018-02-24T12:09:41.117Z,1.89
2018-02-24T12:10:41.333Z,1.88
2018-02-24T12:11:41.058Z,1.94
2018-02-24T12:12:41.275Z,2
2018-02-24T12:13:41.240Z,1.94
2018-02-24T12:14:41.206Z,1.94
2018-02-24T12:15:41.178Z,2.02
2018-02-24T12:16:41.143Z,2
2018-02-24T12:17:41.112Z,1.95
2018-02-24T12:18:41.087Z,1.95
2018-02-24T12:19:41.052Z,1.92
2018-02-24T12:20:41.021Z,2
2018-02-24T12:21:40.992Z,2.02
2018-02-24T12:22:40.973Z,2.11
2018-02-24T12:23:40.884Z,2.11
2018-02-24T12:24:40.892Z,2.11
2018-02-24T12:25:40.869Z,2.07
2018-02-24T12:26:40.844Z,2.1
2018-02-24T12:27:40.804Z,2.14
2018-02-24T12:28:40.767Z,2.14
2018-02-24T12:29:40.738Z,2.15
2018-02-24T12:30:41.861Z,2.17
2018-02-24T12:31:40.824Z,2.2
2018-02-24T12:32:42.293Z,2.25
2018-02-24T12:33:40.476Z,2.28
2018-02-24T12:34:41.913Z,2.25
2018-02-24T12:35:42.001Z,2.35
2018-02-24T12:36:42.375Z,2.28
2018-02-24T12:37:40.717Z,2.24
2018-02-24T12:38:41.440Z,2.31
2018-02-24T12:39:40.392Z,2.28
2018-02-24T12:40:40.642Z,2.24
2018-02-24T12:41:40.368Z,2.22
2018-02-24T12:42:40.338Z,2.28
2018-02-24T12:43:40.422Z,2.33
2018-02-24T12:44:40.285Z,2.29
2018-02-24T12:45:40.245Z,2.32
2018-02-24T12:46:40.471Z,2.28
2018-02-24T12:47:40.184Z,2.44
2018-02-24T12:48:40.154Z,2.33
2018-02-24T12:49:39.688Z,2.43
2018-02-24T12:50:39.844Z,2.44
2018-02-24T12:51:39.808Z,2.5
2018-02-24T12:52:40.035Z,2.56
2018-02-24T12:53:39.998Z,2.43
2018-02-24T12:54:39.725Z,2.51
2018-02-24T12:55:39.941Z,2.54
2018-02-24T12:56:39.923Z,2.56
2018-02-24T12:57:39.875Z,2.6
2018-02-24T12:58:39.845Z,2.62
2018-02-24T12:59:39.815Z,2.65
2018-02-24T13:00:39.781Z,2.67